createdAt,value
2023-05-15T00:00:41.190Z,13.62
2023-05-15T00:03:11.736Z,13.58
2023-05-15T00:05:40.566Z,13.57
2023-05-15T00:08:10.020Z,13.50
2023-05-15T00:10:40.868Z,13.40
2023-05-15T00:13:11.294Z,13.34
2023-05-15T00:15:39.787Z,13.29
2023-05-15T00:18:10.102Z,13.26
2023-05-15T00:20:38.670Z,13.28
2023-05-15T00:23:07.165Z,13.23
2023-05-15T00:25:35.623Z,13.15
2023-05-15T00:28:04.044Z,13.10
2023-05-15T00:30:32.446Z,13.05
2023-05-15T00:33:00.891Z,13.04
2023-05-15T00:35:30.920Z,13.02
2023-05-15T00:37:59.434Z,13.01
2023-05-15T00:40:29.842Z,12.97
2023-05-15T00:42:59.686Z,12.92
2023-05-15T00:45:29.696Z,12.85
2023-05-15T00:47:59.994Z,12.79
2023-05-15T00:50:31.910Z,12.73
2023-05-15T00:53:02.011Z,12.70
2023-05-15T00:55:30.663Z,12.66
2023-05-15T00:58:01.974Z,12.66
2023-05-15T01:00:32.832Z,12.63
2023-05-15T01:03:02.680Z,12.61
2023-05-15T01:05:33.871Z,12.54
2023-05-15T01:08:12.020Z,12.56
2023-05-15T01:10:44.249Z,12.54
2023-05-15T01:13:15.760Z,12.50
2023-05-15T01:15:45.465Z,12.48
2023-05-15T01:18:14.141Z,12.43
2023-05-15T01:21:07.941Z,12.39
2023-05-15T01:24:05.785Z,12.34
2023-05-15T01:27:13.286Z,12.30
2023-05-15T01:29:53.028Z,12.28
2023-05-15T01:32:30.798Z,12.26
2023-05-15T01:35:12.704Z,12.24
2023-05-15T01:37:49.988Z,12.21
2023-05-15T01:40:25.041Z,12.19
2023-05-15T01:43:01.487Z,12.16
2023-05-15T01:45:33.640Z,12.15
2023-05-15T01:48:08.560Z,12.08
2023-05-15T01:50:40.923Z,12.01
2023-05-15T01:53:11.616Z,12.01
2023-05-15T01:55:43.171Z,12.00
2023-05-15T01:58:15.380Z,12.00
2023-05-15T02:00:46.582Z,11.99
2023-05-15T02:03:18.727Z,12.00
2023-05-15T02:05:49.411Z,11.96
2023-05-15T02:08:18.470Z,11.94
2023-05-15T02:10:48.655Z,11.92
2023-05-15T02:13:19.700Z,11.89
2023-05-15T02:15:48.424Z,11.87
2023-05-15T02:18:17.056Z,11.86
2023-05-15T02:20:45.611Z,11.83
2023-05-15T02:23:14.517Z,11.81
2023-05-15T02:25:57.795Z,11.78
2023-05-15T02:28:38.048Z,11.74
2023-05-15T02:31:19.177Z,11.72
2023-05-15T02:33:56.934Z,11.69
2023-05-15T02:36:34.770Z,11.67
2023-05-15T02:39:04.238Z,11.65
2023-05-15T02:41:36.051Z,11.63
2023-05-15T02:44:08.719Z,11.63
2023-05-15T02:46:40.194Z,11.61
2023-05-15T02:49:09.784Z,11.59
2023-05-15T02:51:38.778Z,11.57
2023-05-15T02:54:08.947Z,11.57
2023-05-15T02:56:38.035Z,11.59
2023-05-15T02:59:08.834Z,11.58
2023-05-15T03:01:37.403Z,11.58
2023-05-15T03:04:07.738Z,11.56
2023-05-15T03:06:36.551Z,11.57
2023-05-15T03:09:05.102Z,11.54
2023-05-15T03:11:33.566Z,11.52
2023-05-15T03:14:03.216Z,11.48
2023-05-15T03:16:33.610Z,11.47
2023-05-15T03:19:03.183Z,11.44
2023-05-15T03:21:32.049Z,11.42
2023-05-15T03:24:01.469Z,11.43
2023-05-15T03:26:29.930Z,11.42
2023-05-15T03:29:00.567Z,11.41
2023-05-15T03:31:30.141Z,11.40
2023-05-15T03:34:04.200Z,11.40
2023-05-15T03:36:32.644Z,11.38
2023-05-15T03:39:01.063Z,11.35
2023-05-15T03:41:31.071Z,11.32
2023-05-15T03:43:59.501Z,11.29
2023-05-15T03:46:29.032Z,11.25
2023-05-15T03:48:58.067Z,11.22
2023-05-15T03:51:28.500Z,11.21
2023-05-15T03:53:57.046Z,11.18
2023-05-15T03:56:26.146Z,11.16
2023-05-15T03:58:54.900Z,11.16
2023-05-15T04:01:23.352Z,11.16
2023-05-15T04:03:51.769Z,11.18
2023-05-15T04:06:20.801Z,11.16
2023-05-15T04:08:51.103Z,11.14
2023-05-15T04:11:20.090Z,11.13
2023-05-15T04:13:49.130Z,11.09
2023-05-15T04:16:17.565Z,11.08
2023-05-15T04:18:46.026Z,11.03
2023-05-15T04:21:14.510Z,11.02
2023-05-15T04:23:42.893Z,11.00
2023-05-15T04:26:13.363Z,10.97
2023-05-15T04:28:52.406Z,10.97
2023-05-15T04:31:31.841Z,10.96
2023-05-15T04:34:01.915Z,10.94
2023-05-15T04:36:30.359Z,10.95
2023-05-15T04:38:58.745Z,10.94
2023-05-15T04:41:28.533Z,10.94
2023-05-15T04:43:57.110Z,10.96
2023-05-15T04:46:25.635Z,10.97
2023-05-15T04:48:54.726Z,10.99
2023-05-15T04:51:23.163Z,10.99
2023-05-15T04:53:51.699Z,10.98
2023-05-15T04:56:20.088Z,10.98
2023-05-15T04:58:49.889Z,11.01
2023-05-15T05:01:18.891Z,11.04
2023-05-15T05:03:47.587Z,11.06
2023-05-15T05:06:16.194Z,11.08
2023-05-15T05:08:44.630Z,11.09
2023-05-15T05:11:13.658Z,11.14
2023-05-15T05:13:43.116Z,11.14
2023-05-15T05:16:13.021Z,11.16
2023-05-15T05:18:41.480Z,11.22
2023-05-15T05:21:09.962Z,11.23
2023-05-15T05:23:38.338Z,11.26
2023-05-15T05:26:07.401Z,11.29
2023-05-15T05:28:35.853Z,11.31
2023-05-15T05:31:04.271Z,11.35
2023-05-15T05:33:34.732Z,11.36
2023-05-15T05:36:03.896Z,11.37
2023-05-15T05:38:33.400Z,11.39
2023-05-15T05:41:03.130Z,11.38
2023-05-15T05:43:32.602Z,11.42
2023-05-15T05:46:00.975Z,11.46
2023-05-15T05:48:30.906Z,11.52
2023-05-15T05:51:01.567Z,11.57
2023-05-15T05:53:39.590Z,11.61
2023-05-15T05:56:08.946Z,11.66
2023-05-15T05:58:38.264Z,11.71
2023-05-15T06:01:07.117Z,11.74
2023-05-15T06:03:36.902Z,11.78
2023-05-15T06:06:07.672Z,11.84
2023-05-15T06:08:36.301Z,11.91
2023-05-15T06:11:04.792Z,11.94
2023-05-15T06:13:34.440Z,11.99
2023-05-15T06:16:02.861Z,12.04
2023-05-15T06:18:31.847Z,12.09
2023-05-15T06:21:00.652Z,12.16
2023-05-15T06:23:30.626Z,12.19
2023-05-15T06:25:59.257Z,12.26
2023-05-15T06:28:28.157Z,12.33
2023-05-15T06:30:56.653Z,12.38
2023-05-15T06:33:25.133Z,12.41
2023-05-15T06:35:53.536Z,12.44
2023-05-15T06:38:21.978Z,12.49
2023-05-15T06:40:53.516Z,12.54
2023-05-15T06:43:21.915Z,12.59
2023-05-15T06:45:51.284Z,12.65
2023-05-15T06:48:19.761Z,12.71
2023-05-15T06:50:48.280Z,12.79
2023-05-15T06:53:17.755Z,12.85
2023-05-15T06:55:46.293Z,12.92
2023-05-15T06:58:17.978Z,13.02
2023-05-15T07:00:46.988Z,13.07
2023-05-15T07:03:16.814Z,13.15
2023-05-15T07:05:46.683Z,13.24
2023-05-15T07:08:16.207Z,13.30
2023-05-15T07:10:44.738Z,13.42
2023-05-15T07:13:13.207Z,13.51
2023-05-15T07:15:43.619Z,13.59
2023-05-15T07:18:12.218Z,13.70
2023-05-15T07:20:40.698Z,13.79
2023-05-15T07:23:09.733Z,13.86
2023-05-15T07:25:39.158Z,13.90
2023-05-15T07:28:07.582Z,13.96
2023-05-15T07:30:36.304Z,14.01
2023-05-15T07:33:06.166Z,14.08
2023-05-15T07:35:35.119Z,14.12
2023-05-15T07:38:03.611Z,14.20
2023-05-15T07:40:33.106Z,14.27
2023-05-15T07:43:01.563Z,14.30
2023-05-15T07:45:30.650Z,14.37
2023-05-15T07:47:59.210Z,14.43
2023-05-15T07:50:29.895Z,14.50
2023-05-15T07:52:58.974Z,14.56
2023-05-15T07:55:27.483Z,14.59
2023-05-15T07:57:56.536Z,14.60
2023-05-15T08:00:25.086Z,14.59
2023-05-15T08:02:54.185Z,14.63
2023-05-15T08:05:24.382Z,14.67
2023-05-15T08:07:55.176Z,14.74
2023-05-15T08:10:24.002Z,14.76
2023-05-15T08:12:52.429Z,14.80
2023-05-15T08:15:21.164Z,14.86
2023-05-15T08:17:49.694Z,14.92
2023-05-15T08:20:19.074Z,14.94
2023-05-15T08:22:47.493Z,14.97
2023-05-15T08:25:19.795Z,15.03
2023-05-15T08:27:48.198Z,15.08
2023-05-15T08:30:17.858Z,15.15
2023-05-15T08:32:49.089Z,15.21
2023-05-15T08:38:10.424Z,15.32
2023-05-15T08:40:42.960Z,15.37
2023-05-15T08:43:19.506Z,15.41
2023-05-15T08:45:49.010Z,15.47
2023-05-15T08:48:21.377Z,15.48
2023-05-15T08:50:54.370Z,15.53
2023-05-15T08:53:23.337Z,15.59
2023-05-15T08:55:53.788Z,15.65
2023-05-15T08:58:26.075Z,15.71
2023-05-15T09:00:54.640Z,15.75
2023-05-15T09:03:27.427Z,15.83
2023-05-15T09:05:57.243Z,15.90
2023-05-15T09:08:30.541Z,15.97
2023-05-15T09:11:04.239Z,16.05
2023-05-15T09:13:32.727Z,16.13
2023-05-15T09:16:01.374Z,16.22
2023-05-15T09:18:33.705Z,16.29
2023-05-15T09:21:27.414Z,16.35
2023-05-15T09:24:16.445Z,16.37
2023-05-15T09:26:48.017Z,16.44
2023-05-15T09:29:20.251Z,16.46
2023-05-15T09:31:48.911Z,16.48
2023-05-15T09:34:19.168Z,16.54
2023-05-15T09:36:47.732Z,16.60
2023-05-15T09:39:23.782Z,16.65
2023-05-15T09:41:54.827Z,16.66
2023-05-15T09:44:33.802Z,16.71
2023-05-15T09:47:02.905Z,16.76
2023-05-15T09:49:33.486Z,16.90
2023-05-15T09:52:11.005Z,16.97
2023-05-15T09:54:41.102Z,17.01
2023-05-15T09:57:15.177Z,17.05
2023-05-15T09:59:49.158Z,17.09
2023-05-15T10:02:28.165Z,17.05
2023-05-15T10:04:57.925Z,17.09
2023-05-15T10:07:30.513Z,17.07
2023-05-15T10:09:59.386Z,17.07
2023-05-15T10:12:32.384Z,17.08
2023-05-15T10:15:03.758Z,17.11
2023-05-15T10:17:36.466Z,17.11
2023-05-15T10:20:08.148Z,17.13
2023-05-15T10:22:42.662Z,17.14
2023-05-15T10:25:23.889Z,17.16
2023-05-15T10:27:57.345Z,17.18
2023-05-15T10:30:28.277Z,17.18
2023-05-15T10:32:58.034Z,17.19
2023-05-15T10:35:28.590Z,17.22
2023-05-15T10:37:58.871Z,17.23
2023-05-15T10:40:29.540Z,17.25
2023-05-15T10:43:01.779Z,17.26
2023-05-15T10:45:32.311Z,17.30
2023-05-15T10:48:03.482Z,17.29
2023-05-15T10:50:32.146Z,17.36
2023-05-15T10:53:01.974Z,17.38
2023-05-15T10:55:32.737Z,17.47
2023-05-15T10:58:02.628Z,17.55
2023-05-15T11:00:32.400Z,17.61
2023-05-15T11:03:02.708Z,17.67
2023-05-15T11:05:51.661Z,17.70
2023-05-15T11:08:29.878Z,17.74
2023-05-15T11:10:58.552Z,17.75
2023-05-15T11:13:29.334Z,17.73
2023-05-15T11:15:58.352Z,17.75
2023-05-15T11:18:27.608Z,17.78
2023-05-15T11:21:09.764Z,17.76
2023-05-15T11:23:43.003Z,17.81
2023-05-15T11:26:14.721Z,17.86
2023-05-15T11:28:47.692Z,17.96
2023-05-15T11:31:16.717Z,18.05
2023-05-15T11:33:45.369Z,18.10
2023-05-15T11:36:18.511Z,18.17
2023-05-15T11:38:52.314Z,18.22
2023-05-15T11:41:27.624Z,18.23
2023-05-15T11:43:58.365Z,18.26
2023-05-15T11:46:28.680Z,18.24
2023-05-15T11:49:00.129Z,18.10
2023-05-15T11:51:30.257Z,18.12
2023-05-15T11:54:01.798Z,17.99
2023-05-15T11:56:31.006Z,17.91
2023-05-15T11:59:02.932Z,17.82
2023-05-15T12:01:41.406Z,17.78
2023-05-15T12:04:17.452Z,17.77
2023-05-15T12:06:49.608Z,17.68
2023-05-15T12:09:22.579Z,17.55
2023-05-15T12:11:53.489Z,17.41
2023-05-15T12:14:29.819Z,17.24
2023-05-15T12:17:02.817Z,17.15
2023-05-15T12:19:31.923Z,17.00
2023-05-15T12:22:00.355Z,16.89
2023-05-15T12:24:28.974Z,16.83
2023-05-15T12:26:58.319Z,16.73
2023-05-15T12:29:29.529Z,16.68
2023-05-15T12:31:58.203Z,16.64
2023-05-15T12:34:27.424Z,16.56
2023-05-15T12:36:55.867Z,16.54
2023-05-15T12:39:24.609Z,16.56
2023-05-15T12:41:54.327Z,16.55
2023-05-15T12:44:23.270Z,16.55
2023-05-15T12:46:56.741Z,16.56
2023-05-15T12:49:25.249Z,16.53
2023-05-15T12:51:54.237Z,16.49
2023-05-15T12:54:22.688Z,16.52
2023-05-15T12:56:51.142Z,16.54
2023-05-15T12:59:20.961Z,16.55
2023-05-15T13:01:50.760Z,16.55
2023-05-15T13:04:21.153Z,16.53
2023-05-15T13:06:50.634Z,16.53
2023-05-15T13:09:24.320Z,16.52
2023-05-15T13:11:52.897Z,16.51
2023-05-15T13:14:23.453Z,16.54
2023-05-15T13:16:52.011Z,16.54
2023-05-15T13:19:21.864Z,16.54
2023-05-15T13:21:50.923Z,16.53
2023-05-15T13:24:20.119Z,16.55
2023-05-15T13:26:48.526Z,16.56
2023-05-15T13:29:17.514Z,16.52
2023-05-15T13:31:46.722Z,16.52
2023-05-15T13:34:15.417Z,16.52
2023-05-15T13:36:45.290Z,16.54
2023-05-15T13:39:13.699Z,16.55
2023-05-15T13:41:42.136Z,16.57
2023-05-15T13:44:10.649Z,16.53
2023-05-15T13:46:39.523Z,16.52
2023-05-15T13:49:08.004Z,16.51
2023-05-15T13:51:36.567Z,16.52
2023-05-15T13:54:06.475Z,16.49
2023-05-15T13:56:34.922Z,16.51
2023-05-15T13:59:03.371Z,16.52
2023-05-15T14:01:31.883Z,16.51
2023-05-15T14:04:01.391Z,16.51
2023-05-15T14:06:33.359Z,16.51
2023-05-15T14:09:01.807Z,16.49
2023-05-15T14:11:31.693Z,16.49
2023-05-15T14:14:00.807Z,16.44
2023-05-15T14:16:29.863Z,16.40
2023-05-15T14:18:59.190Z,16.38
2023-05-15T14:21:28.152Z,16.36
2023-05-15T14:23:56.612Z,16.31
2023-05-15T14:26:25.201Z,16.29
2023-05-15T14:28:55.572Z,16.27
2023-05-15T14:31:24.752Z,16.24
2023-05-15T14:33:53.488Z,16.22
2023-05-15T14:36:21.976Z,16.25
2023-05-15T14:38:50.435Z,16.25
2023-05-15T14:41:18.949Z,16.14
2023-05-15T14:43:50.458Z,16.20
2023-05-15T14:46:21.947Z,16.25
2023-05-15T14:48:50.543Z,16.29
2023-05-15T14:51:19.981Z,16.34
2023-05-15T14:53:48.556Z,16.35
2023-05-15T14:56:17.469Z,16.36
2023-05-15T14:58:46.644Z,16.39
2023-05-15T15:01:15.135Z,16.40
2023-05-15T15:03:45.607Z,16.41
2023-05-15T15:06:14.242Z,16.44
2023-05-15T15:08:43.432Z,16.45
2023-05-15T15:11:12.046Z,16.47
2023-05-15T15:13:40.460Z,16.50
2023-05-15T15:16:09.979Z,16.52
2023-05-15T15:18:38.528Z,16.51
2023-05-15T15:21:09.871Z,16.52
2023-05-15T15:23:38.360Z,16.55
2023-05-15T15:26:06.915Z,16.55
2023-05-15T15:28:37.802Z,16.58
2023-05-15T15:31:06.671Z,16.61
2023-05-15T15:33:35.106Z,16.62
2023-05-15T15:36:03.563Z,16.63
2023-05-15T15:38:33.434Z,16.64
2023-05-15T15:41:05.649Z,16.62
2023-05-15T15:43:34.500Z,16.64
2023-05-15T15:46:03.379Z,16.66
2023-05-15T15:48:31.919Z,16.65
2023-05-15T15:51:00.927Z,16.64
2023-05-15T15:53:29.449Z,16.65
2023-05-15T15:55:59.222Z,16.64
2023-05-15T15:58:27.663Z,16.62
2023-05-15T16:00:56.071Z,16.60
2023-05-15T16:03:24.928Z,16.58
2023-05-15T16:05:53.521Z,16.57
2023-05-15T16:08:22.548Z,16.57
2023-05-15T16:10:51.661Z,16.55
2023-05-15T16:13:21.492Z,16.56
2023-05-15T16:15:49.888Z,16.54
2023-05-15T16:18:18.309Z,16.53
2023-05-15T16:20:48.835Z,16.53
2023-05-15T16:23:17.351Z,16.51
2023-05-15T16:25:48.024Z,16.54
2023-05-15T16:28:16.543Z,16.54
2023-05-15T16:30:49.785Z,16.54
2023-05-15T16:33:18.792Z,16.56
2023-05-15T16:35:47.961Z,16.57
2023-05-15T16:38:18.093Z,16.56
2023-05-15T16:40:46.788Z,16.58
2023-05-15T16:43:15.613Z,16.58
2023-05-15T16:45:46.865Z,16.58
2023-05-15T16:48:15.420Z,16.58
2023-05-15T16:50:44.322Z,16.59
2023-05-15T16:53:14.862Z,16.63
2023-05-15T16:55:43.959Z,16.63
2023-05-15T16:58:12.463Z,16.65
2023-05-15T17:00:41.136Z,16.71
2023-05-15T17:03:11.060Z,16.77
2023-05-15T17:05:40.352Z,16.88
2023-05-15T17:08:08.752Z,16.98
2023-05-15T17:10:37.469Z,17.10
2023-05-15T17:13:06.369Z,17.18
2023-05-15T17:15:34.918Z,17.25
2023-05-15T17:18:03.469Z,17.33
2023-05-15T17:20:33.294Z,17.37
2023-05-15T17:23:02.768Z,17.41
2023-05-15T17:25:31.278Z,17.45
2023-05-15T17:27:59.777Z,17.46
2023-05-15T17:30:28.254Z,17.48
2023-05-15T17:32:57.004Z,17.52
2023-05-15T17:35:25.932Z,17.56
2023-05-15T17:37:56.005Z,17.57
2023-05-15T17:40:24.459Z,17.56
2023-05-15T17:42:52.897Z,17.57
2023-05-15T17:45:21.447Z,17.62
2023-05-15T17:47:50.215Z,17.63
2023-05-15T17:50:18.910Z,17.62
2023-05-15T17:52:47.329Z,17.63
2023-05-15T17:55:17.273Z,17.60
2023-05-15T17:57:45.712Z,17.58
2023-05-15T18:00:17.149Z,17.53
2023-05-15T18:02:46.278Z,17.51
2023-05-15T18:05:14.727Z,17.47
2023-05-15T18:07:43.289Z,17.43
2023-05-15T18:10:12.005Z,17.41
2023-05-15T18:12:41.973Z,17.35
2023-05-15T18:15:11.647Z,17.26
2023-05-15T18:17:40.168Z,17.22
2023-05-15T18:20:11.624Z,17.15
2023-05-15T18:22:41.070Z,17.07
2023-05-15T18:25:10.671Z,16.97
2023-05-15T18:27:39.158Z,16.93
2023-05-15T18:30:11.772Z,16.87
2023-05-15T18:32:40.289Z,16.81
2023-05-15T18:35:10.018Z,16.77
2023-05-15T18:37:38.582Z,16.69
2023-05-15T18:40:08.785Z,16.62
2023-05-15T18:42:37.290Z,16.56
2023-05-15T18:45:08.956Z,16.44
2023-05-15T18:47:37.434Z,16.42
2023-05-15T18:50:07.611Z,16.36
2023-05-15T18:52:36.102Z,16.28
2023-05-15T18:55:04.927Z,16.25
2023-05-15T18:57:33.370Z,16.22
2023-05-15T19:00:01.785Z,16.19
2023-05-15T19:02:32.730Z,16.10
2023-05-15T19:05:01.320Z,16.05
2023-05-15T19:07:29.864Z,16.01
2023-05-15T19:09:59.614Z,15.95
2023-05-15T19:12:28.794Z,15.94
2023-05-15T19:14:57.387Z,15.90
2023-05-15T19:17:26.076Z,15.83
2023-05-15T19:19:56.066Z,15.83
2023-05-15T19:22:24.616Z,15.80
2023-05-15T19:24:53.032Z,15.76
2023-05-15T19:27:21.555Z,15.69
2023-05-15T19:29:50.000Z,15.63
2023-05-15T19:32:18.435Z,15.58
2023-05-15T19:34:48.580Z,15.53
2023-05-15T19:37:18.730Z,15.49
2023-05-15T19:39:47.230Z,15.42
2023-05-15T19:42:15.662Z,15.36
2023-05-15T19:44:44.626Z,15.33
2023-05-15T19:47:13.086Z,15.30
2023-05-15T19:49:41.868Z,15.26
2023-05-15T19:52:11.577Z,15.22
2023-05-15T19:54:41.511Z,15.19
2023-05-15T19:57:09.945Z,15.15
2023-05-15T19:59:38.547Z,15.14
2023-05-15T20:02:11.032Z,15.10
2023-05-15T20:04:39.848Z,15.08
2023-05-15T20:07:08.217Z,15.03
2023-05-15T20:09:39.193Z,15.00
2023-05-15T20:12:09.997Z,14.96
2023-05-15T20:14:38.398Z,14.90
2023-05-15T20:17:07.108Z,14.84
2023-05-15T20:19:35.522Z,14.82
2023-05-15T20:22:03.995Z,14.79
2023-05-15T20:24:32.416Z,14.72
2023-05-15T20:27:00.973Z,14.68
2023-05-15T20:29:31.937Z,14.66
2023-05-15T20:32:00.574Z,14.64
2023-05-15T20:34:30.365Z,14.57
2023-05-15T20:36:59.323Z,14.54
2023-05-15T20:39:28.219Z,14.48
2023-05-15T20:41:56.645Z,14.42
2023-05-15T20:44:25.106Z,14.38
2023-05-15T20:46:54.906Z,14.36
2023-05-15T20:49:23.443Z,14.32
2023-05-15T20:51:51.886Z,14.25
2023-05-15T20:54:20.249Z,14.20
2023-05-15T20:56:48.966Z,14.19
2023-05-15T20:59:17.388Z,14.16
2023-05-15T21:01:47.675Z,14.10
2023-05-15T21:04:17.570Z,14.08
2023-05-15T21:06:46.702Z,14.03
2023-05-15T21:09:15.910Z,13.97
2023-05-15T21:11:46.244Z,13.89
2023-05-15T21:14:14.838Z,13.87
2023-05-15T21:16:43.274Z,13.85
2023-05-15T21:19:12.182Z,13.82
2023-05-15T21:21:42.567Z,13.81
2023-05-15T21:24:10.949Z,13.78
2023-05-15T21:26:39.330Z,13.72
2023-05-15T21:29:07.717Z,13.65
2023-05-15T21:31:36.328Z,13.63
2023-05-15T21:34:05.412Z,13.62
2023-05-15T21:36:34.325Z,13.58
2023-05-15T21:39:04.723Z,13.57
2023-05-15T21:41:34.421Z,13.56
2023-05-15T21:44:02.998Z,13.56
2023-05-15T21:46:31.994Z,13.54
2023-05-15T21:49:00.651Z,13.53
2023-05-15T21:51:29.107Z,13.51
2023-05-15T21:53:58.033Z,13.48
2023-05-15T21:56:27.902Z,13.47
2023-05-15T21:58:56.277Z,13.47
2023-05-15T22:01:24.755Z,13.45
2023-05-15T22:03:53.324Z,13.46
2023-05-15T22:06:21.812Z,13.42
2023-05-15T22:08:50.316Z,13.39
2023-05-15T22:11:18.819Z,13.38
2023-05-15T22:13:48.647Z,13.36
2023-05-15T22:16:17.134Z,13.33
2023-05-15T22:18:47.709Z,13.30
2023-05-15T22:21:16.416Z,13.29
2023-05-15T22:23:44.810Z,13.27
2023-05-15T22:26:13.682Z,13.25
2023-05-15T22:28:42.133Z,13.24
2023-05-15T22:31:11.981Z,13.21
2023-05-15T22:33:40.477Z,13.19
2023-05-15T22:36:09.981Z,13.15
2023-05-15T22:38:38.460Z,13.14
2023-05-15T22:41:08.787Z,13.11
2023-05-15T22:43:38.263Z,13.07
2023-05-15T22:46:08.060Z,13.02
2023-05-15T22:48:38.579Z,13.01
2023-05-15T22:51:08.687Z,12.94
2023-05-15T22:53:37.614Z,12.88
2023-05-15T22:56:07.853Z,12.87
2023-05-15T22:58:36.881Z,12.83
2023-05-15T23:01:06.384Z,12.77
2023-05-15T23:03:36.152Z,12.76
2023-05-15T23:06:07.355Z,12.74
2023-05-15T23:08:36.309Z,12.74
2023-05-15T23:11:05.318Z,12.72
2023-05-15T23:13:33.771Z,12.70
2023-05-15T23:16:02.270Z,12.69
2023-05-15T23:18:31.323Z,12.67
2023-05-15T23:21:02.458Z,12.68
2023-05-15T23:23:32.346Z,12.67
2023-05-15T23:26:01.295Z,12.66
2023-05-15T23:28:29.767Z,12.63
2023-05-15T23:30:59.176Z,12.58
2023-05-15T23:33:27.648Z,12.56
2023-05-15T23:35:56.707Z,12.55
2023-05-15T23:38:25.569Z,12.55
2023-05-15T23:40:56.103Z,12.52
2023-05-15T23:43:24.590Z,12.53
2023-05-15T23:45:53.566Z,12.52
2023-05-15T23:48:22.040Z,12.52
2023-05-15T23:50:52.172Z,12.52
2023-05-15T23:53:20.719Z,12.50
2023-05-15T23:55:49.337Z,12.49
2023-05-15T23:58:19.587Z,12.49
